createdAt,value
2019-01-02T00:00:38.869Z,103079.11
2019-01-02T00:03:06.087Z,103076.50
2019-01-02T00:05:33.853Z,103079.62
2019-01-02T00:08:01.113Z,103081.18
2019-01-02T00:10:28.527Z,103083.15
2019-01-02T00:12:55.817Z,103082.23
2019-01-02T00:15:23.656Z,103083.42
2019-01-02T00:17:50.923Z,103071.52
2019-01-02T00:20:18.494Z,103077.53
2019-01-02T00:22:45.709Z,103095.70
2019-01-02T00:25:12.940Z,103100.17
2019-01-02T00:27:40.212Z,103096.11
2019-01-02T00:30:07.652Z,103084.73
2019-01-02T00:32:35.685Z,103096.11
2019-01-02T00:35:03.137Z,103097.27
2019-01-02T00:37:30.707Z,103086.70
2019-01-02T00:39:57.972Z,103104.22
2019-01-02T00:42:25.677Z,103104.87
2019-01-02T00:44:52.936Z,103099.13
2019-01-02T00:47:21.014Z,103106.69
2019-01-02T00:49:48.234Z,103107.34
2019-01-02T00:52:15.967Z,103122.53
2019-01-02T00:54:43.240Z,103113.63
2019-01-02T00:57:10.807Z,103112.86
2019-01-02T00:59:38.104Z,103104.47
2019-01-02T01:02:05.455Z,103113.38
2019-01-02T01:04:32.798Z,103114.28
2019-01-02T01:07:00.096Z,103109.45
2019-01-02T01:09:27.843Z,103118.45
2019-01-02T01:11:55.103Z,103123.69
2019-01-02T01:14:23.175Z,103131.17
2019-01-02T01:16:50.403Z,103141.75
2019-01-02T01:19:19.407Z,103132.19
2019-01-02T01:21:46.666Z,103155.48
2019-01-02T01:24:13.974Z,103157.84
2019-01-02T01:26:41.252Z,103161.91
2019-01-02T01:29:09.706Z,103152.35
2019-01-02T01:31:39.348Z,103157.04
2019-01-02T01:34:08.741Z,103167.64
2019-01-02T01:36:36.027Z,103164.88
2019-01-02T01:39:06.030Z,103171.31
2019-01-02T01:41:33.317Z,103174.58
2019-01-02T01:44:00.981Z,103142.13
2019-01-02T01:46:28.251Z,103183.08
2019-01-02T01:48:58.080Z,103184.78
2019-01-02T01:51:25.365Z,103193.53
2019-01-02T01:53:52.713Z,103194.69
2019-01-02T01:56:20.438Z,103205.41
2019-01-02T01:58:47.794Z,103210.78
2019-01-02T02:01:15.083Z,103195.34
2019-01-02T02:03:42.839Z,103210.39
2019-01-02T02:06:10.056Z,103212.09
2019-01-02T02:08:37.739Z,103213.91
2019-01-02T02:11:05.007Z,103217.59
2019-01-02T02:13:32.236Z,103224.53
2019-01-02T02:15:59.914Z,103222.83
2019-01-02T02:18:27.132Z,103223.88
2019-01-02T02:20:56.047Z,103230.92
2019-01-02T02:23:23.339Z,103227.15
2019-01-02T02:25:50.558Z,103242.19
2019-01-02T02:28:17.787Z,103251.48
2019-01-02T02:30:45.067Z,103247.67
2019-01-02T02:33:12.685Z,103249.52
2019-01-02T02:35:40.295Z,103251.48
2019-01-02T02:38:07.809Z,103254.47
2019-01-02T02:40:35.071Z,103250.42
2019-01-02T02:43:02.327Z,103250.92
2019-01-02T02:45:30.117Z,103257.73
2019-01-02T02:47:57.739Z,103256.41
2019-01-02T02:50:25.753Z,103254.73
2019-01-02T02:52:53.178Z,103255.11
2019-01-02T02:55:23.296Z,103252.12
2019-01-02T02:57:50.626Z,103253.80
2019-01-02T03:00:17.860Z,103255.78
2019-01-02T03:02:45.163Z,103248.98
2019-01-02T03:05:13.483Z,103251.99
2019-01-02T03:07:42.431Z,103266.64
2019-01-02T03:10:11.966Z,103258.13
2019-01-02T03:12:41.021Z,103250.84
2019-01-02T03:15:09.330Z,103241.13
2019-01-02T03:17:36.585Z,103238.64
2019-01-02T03:20:04.722Z,103238.09
2019-01-02T03:22:32.302Z,103238.73
2019-01-02T03:24:59.808Z,103251.77
2019-01-02T03:27:27.526Z,103247.36
2019-01-02T03:29:55.059Z,103260.41
2019-01-02T03:32:22.295Z,103252.34
2019-01-02T03:34:49.959Z,103248.92
2019-01-02T03:37:17.213Z,103244.33
2019-01-02T03:39:44.463Z,103256.48
2019-01-02T03:42:11.768Z,103242.77
2019-01-02T03:44:39.038Z,103238.31
2019-01-02T03:47:06.284Z,103248.62
2019-01-02T03:49:33.548Z,103249.95
2019-01-02T03:52:00.819Z,103268.00
2019-01-02T03:54:28.018Z,103277.27
2019-01-02T03:56:55.247Z,103267.61
2019-01-02T03:59:22.480Z,103266.39
2019-01-02T04:01:49.719Z,103279.97
2019-01-02T04:04:17.019Z,103281.95
2019-01-02T04:06:44.247Z,103276.45
2019-01-02T04:09:11.456Z,103286.27
2019-01-02T04:11:38.704Z,103278.27
2019-01-02T04:14:05.932Z,103284.68
2019-01-02T04:16:33.203Z,103267.84
2019-01-02T04:19:00.468Z,103269.41
2019-01-02T04:21:27.692Z,103269.94
2019-01-02T04:23:54.962Z,103275.68
2019-01-02T04:26:22.218Z,103272.84
2019-01-02T04:28:49.458Z,103283.31
2019-01-02T04:31:16.711Z,103299.00
2019-01-02T04:33:43.934Z,103305.34
2019-01-02T04:36:11.161Z,103309.64
2019-01-02T04:38:38.409Z,103289.50
2019-01-02T04:41:05.667Z,103298.89
2019-01-02T04:43:33.795Z,103312.77
2019-01-02T04:46:01.055Z,103310.70
2019-01-02T04:48:28.263Z,103320.34
2019-01-02T04:50:55.596Z,103324.27
2019-01-02T04:53:22.849Z,103314.47
2019-01-02T04:55:50.090Z,103308.70
2019-01-02T04:58:17.359Z,103305.97
2019-01-02T05:00:44.816Z,103306.76
2019-01-02T05:03:12.059Z,103297.19
2019-01-02T05:05:39.280Z,103311.36
2019-01-02T05:08:08.721Z,103310.29
2019-01-02T05:10:35.979Z,103318.16
2019-01-02T05:13:03.197Z,103310.08
2019-01-02T05:15:30.448Z,103303.98
2019-01-02T05:17:57.720Z,103310.81
2019-01-02T05:20:24.959Z,103313.21
2019-01-02T05:22:52.211Z,103310.99
2019-01-02T05:25:19.504Z,103306.42
2019-01-02T05:27:46.722Z,103314.30
2019-01-02T05:30:16.276Z,103301.86
2019-01-02T05:32:43.541Z,103323.35
2019-01-02T05:35:10.784Z,103314.22
2019-01-02T05:37:38.044Z,103327.02
2019-01-02T05:40:08.224Z,103314.59
2019-01-02T05:42:35.499Z,103325.70
2019-01-02T05:45:02.857Z,103327.30
2019-01-02T05:47:30.878Z,103324.60
2019-01-02T05:49:58.187Z,103330.45
2019-01-02T05:52:25.440Z,103331.89
2019-01-02T05:54:52.692Z,103340.00
2019-01-02T05:57:19.909Z,103336.37
2019-01-02T05:59:47.168Z,103354.28
2019-01-02T06:02:15.415Z,103360.38
2019-01-02T06:04:42.645Z,103366.88
2019-01-02T06:07:09.923Z,103354.08
2019-01-02T06:09:37.137Z,103352.25
2019-01-02T06:12:04.431Z,103356.72
2019-01-02T06:14:31.638Z,103361.70
2019-01-02T06:16:58.834Z,103353.09
2019-01-02T06:19:26.088Z,103356.03
2019-01-02T06:21:53.367Z,103348.92
2019-01-02T06:24:20.673Z,103360.69
2019-01-02T06:26:47.892Z,103379.15
2019-01-02T06:29:15.161Z,103392.77
2019-01-02T06:31:42.751Z,103392.91
2019-01-02T06:34:09.997Z,103405.20
2019-01-02T06:36:37.225Z,103405.08
2019-01-02T06:39:06.700Z,103404.95
2019-01-02T06:41:33.996Z,103414.88
2019-01-02T06:44:01.315Z,103417.18
2019-01-02T06:46:28.604Z,103420.04
2019-01-02T06:48:58.086Z,103423.47
2019-01-02T06:51:25.428Z,103409.98
2019-01-02T06:53:52.726Z,103418.80
2019-01-02T06:56:20.043Z,103419.28
2019-01-02T06:58:47.264Z,103419.67
2019-01-02T07:01:14.763Z,103430.56
2019-01-02T07:03:41.954Z,103435.00
2019-01-02T07:06:09.219Z,103447.80
2019-01-02T07:08:36.435Z,103452.48
2019-01-02T07:11:03.663Z,103443.09
2019-01-02T07:13:30.950Z,103449.89
2019-01-02T07:15:58.200Z,103451.20
2019-01-02T07:18:25.442Z,103465.65
2019-01-02T07:20:52.838Z,103457.69
2019-01-02T07:23:20.092Z,103463.55
2019-01-02T07:25:48.464Z,103467.84
2019-01-02T07:28:15.662Z,103469.72
2019-01-02T07:30:42.924Z,103473.13
2019-01-02T07:33:10.191Z,103485.42
2019-01-02T07:36:03.433Z,103493.70
2019-01-02T07:39:00.638Z,103498.62
2019-01-02T07:42:05.444Z,103501.36
2019-01-02T07:45:12.923Z,103518.88
2019-01-02T07:48:20.903Z,103510.05
2019-01-02T07:51:32.801Z,103509.32
2019-01-02T07:54:43.417Z,103519.58
2019-01-02T07:57:52.560Z,103516.41
2019-01-02T08:00:44.287Z,103520.33
2019-01-02T08:04:08.194Z,103525.49
2019-01-02T08:07:38.659Z,103531.79
2019-01-02T08:10:42.615Z,103529.25
2019-01-02T08:13:41.587Z,103533.17
2019-01-02T08:17:15.035Z,103538.92
2019-01-02T08:20:24.094Z,103538.92
2019-01-02T08:23:54.375Z,103543.27
2019-01-02T08:26:36.414Z,103546.44
2019-01-02T08:29:30.857Z,103560.73
2019-01-02T08:32:49.137Z,103559.44
2019-01-02T08:35:34.591Z,103563.97
2019-01-02T08:38:48.792Z,103576.23
2019-01-02T08:41:58.786Z,103577.75
2019-01-02T08:45:16.647Z,103586.27
2019-01-02T08:48:31.853Z,103595.03
2019-01-02T08:51:47.035Z,103592.89
2019-01-02T08:54:36.056Z,103611.36
2019-01-02T08:57:35.898Z,103608.75
2019-01-02T09:00:57.207Z,103608.34
2019-01-02T09:04:09.309Z,103610.53
2019-01-02T09:07:33.455Z,103608.09
2019-01-02T09:10:38.012Z,103605.36
2019-01-02T09:13:54.972Z,103620.70
2019-01-02T09:17:06.268Z,103632.12
2019-01-02T09:20:04.045Z,103625.78
2019-01-02T09:23:15.906Z,103624.71
2019-01-02T09:26:20.889Z,103635.34
2019-01-02T09:29:26.463Z,103649.30
2019-01-02T09:32:14.721Z,103649.89
2019-01-02T09:35:24.463Z,103655.89
2019-01-02T09:38:28.321Z,103657.78
2019-01-02T09:41:19.017Z,103668.97
2019-01-02T09:44:30.896Z,103672.77
2019-01-02T09:47:41.935Z,103674.80
2019-01-02T09:50:37.187Z,103681.19
2019-01-02T09:53:31.463Z,103674.95
2019-01-02T09:56:26.372Z,103675.55
2019-01-02T09:59:20.327Z,103669.28
2019-01-02T10:02:37.001Z,103673.73
2019-01-02T10:05:41.835Z,103684.08
2019-01-02T10:08:40.570Z,103687.00
2019-01-02T10:11:32.261Z,103689.22
2019-01-02T10:14:40.226Z,103686.88
2019-01-02T10:17:31.799Z,103688.44
2019-01-02T10:20:36.705Z,103691.25
2019-01-02T10:23:52.857Z,103695.73
2019-01-02T10:27:00.900Z,103702.00
2019-01-02T10:30:26.082Z,103707.98
2019-01-02T10:33:28.456Z,103701.05
2019-01-02T10:36:29.019Z,103705.73
2019-01-02T10:39:34.029Z,103711.52
2019-01-02T10:43:13.704Z,103707.20
2019-01-02T10:46:34.487Z,103716.59
2019-01-02T10:49:41.661Z,103717.11
2019-01-02T10:52:57.877Z,103712.62
2019-01-02T10:56:19.019Z,103718.42
2019-01-02T10:59:23.942Z,103724.61
2019-01-02T11:02:38.508Z,103723.65
2019-01-02T11:05:37.216Z,103718.81
2019-01-02T11:08:20.062Z,103725.72
2019-01-02T11:11:09.063Z,103736.90
2019-01-02T11:14:19.755Z,103724.69
2019-01-02T11:17:23.023Z,103734.64
2019-01-02T11:20:23.941Z,103738.92
2019-01-02T11:23:35.843Z,103740.83
2019-01-02T11:26:39.564Z,103742.02
2019-01-02T11:29:23.044Z,103733.57
2019-01-02T11:32:37.724Z,103724.61
2019-01-02T11:35:55.523Z,103735.83
2019-01-02T11:38:46.923Z,103738.53
2019-01-02T11:41:52.581Z,103742.10
2019-01-02T11:44:52.851Z,103743.92
2019-01-02T11:47:20.088Z,103745.16
2019-01-02T11:49:47.326Z,103749.01
2019-01-02T11:52:14.567Z,103748.56
2019-01-02T11:54:41.851Z,103751.98
2019-01-02T11:57:09.063Z,103748.87
2019-01-02T11:59:36.314Z,103749.95
2019-01-02T12:02:04.607Z,103747.16
2019-01-02T12:04:31.943Z,103746.36
2019-01-02T12:06:59.161Z,103743.98
2019-01-02T12:09:26.411Z,103740.57
2019-01-02T12:11:53.637Z,103733.59
2019-01-02T12:14:20.900Z,103722.92
2019-01-02T12:16:48.146Z,103722.92
2019-01-02T12:19:15.389Z,103734.95
2019-01-02T12:21:42.639Z,103740.47
2019-01-02T12:24:09.895Z,103736.42
2019-01-02T12:26:37.187Z,103735.14
2019-01-02T12:29:04.423Z,103733.59
2019-01-02T12:31:31.657Z,103740.53
2019-01-02T12:33:58.946Z,103745.50
2019-01-02T12:36:26.162Z,103745.50
2019-01-02T12:38:53.447Z,103742.00
2019-01-02T12:41:20.727Z,103745.50
2019-01-02T12:43:47.971Z,103752.13
2019-01-02T12:46:15.281Z,103746.50
2019-01-02T12:48:42.501Z,103748.00
2019-01-02T12:51:09.723Z,103758.31
2019-01-02T12:53:36.974Z,103752.70
2019-01-02T12:56:04.194Z,103749.20
2019-01-02T12:58:31.451Z,103758.48
2019-01-02T13:01:06.194Z,103756.23
2019-01-02T13:04:30.143Z,103757.58
2019-01-02T13:07:29.483Z,103762.89
2019-01-02T13:10:17.138Z,103766.02
2019-01-02T13:13:21.830Z,103765.51
2019-01-02T13:16:45.645Z,103767.57
2019-01-02T13:19:39.670Z,103770.43
2019-01-02T13:22:40.549Z,103770.58
2019-01-02T13:25:41.960Z,103776.25
2019-01-02T13:28:26.541Z,103779.82
2019-01-02T13:31:37.580Z,103783.55
2019-01-02T13:34:55.417Z,103784.55
2019-01-02T13:37:30.372Z,103784.12
2019-01-02T13:40:42.462Z,103787.59
2019-01-02T13:43:34.435Z,103782.17
2019-01-02T13:46:31.443Z,103782.41
2019-01-02T13:49:39.180Z,103793.08
2019-01-02T13:52:06.417Z,103795.15
2019-01-02T13:54:33.695Z,103795.98
2019-01-02T13:57:02.032Z,103797.64
2019-01-02T13:59:29.269Z,103796.72
2019-01-02T14:01:56.476Z,103796.28
2019-01-02T14:04:23.753Z,103798.51
2019-01-02T14:06:50.976Z,103797.36
2019-01-02T14:09:18.209Z,103799.93
2019-01-02T14:11:45.468Z,103794.34
2019-01-02T14:14:12.716Z,103797.88
2019-01-02T14:16:39.941Z,103795.81
2019-01-02T14:19:07.165Z,103800.18
2019-01-02T14:21:34.403Z,103802.08
2019-01-02T14:24:01.632Z,103798.83
2019-01-02T14:26:28.931Z,103797.45
2019-01-02T14:28:56.148Z,103793.99
2019-01-02T14:31:23.382Z,103788.56
2019-01-02T14:33:50.668Z,103789.39
2019-01-02T14:36:17.896Z,103796.11
2019-01-02T14:38:45.191Z,103793.36
2019-01-02T14:41:12.408Z,103794.99
2019-01-02T14:43:39.647Z,103797.33
2019-01-02T14:46:06.963Z,103807.81
2019-01-02T14:48:34.257Z,103804.59
2019-01-02T14:51:01.517Z,103803.44
2019-01-02T14:53:28.749Z,103802.92
2019-01-02T14:55:56.044Z,103798.16
2019-01-02T14:58:23.276Z,103807.53
2019-01-02T15:00:50.508Z,103815.75
2019-01-02T15:03:17.772Z,103828.70
2019-01-02T15:05:45.063Z,103837.23
2019-01-02T15:08:12.302Z,103832.45
2019-01-02T15:10:39.534Z,103834.67
2019-01-02T15:13:06.764Z,103831.53
2019-01-02T15:15:34.030Z,103829.92
2019-01-02T15:18:01.335Z,103832.94
2019-01-02T15:20:28.544Z,103827.37
2019-01-02T15:22:55.807Z,103826.58
2019-01-02T15:25:23.082Z,103833.57
2019-01-02T15:27:50.311Z,103836.92
2019-01-02T15:30:20.715Z,103837.66
2019-01-02T15:32:47.919Z,103843.87
2019-01-02T15:35:15.194Z,103836.78
2019-01-02T15:37:45.624Z,103837.59
2019-01-02T15:40:12.866Z,103838.55
2019-01-02T15:42:40.151Z,103844.79
2019-01-02T15:45:08.697Z,103839.59
2019-01-02T15:47:35.957Z,103843.89
2019-01-02T15:50:03.750Z,103846.78
2019-01-02T15:52:31.075Z,103848.64
2019-01-02T15:54:58.337Z,103848.59
2019-01-02T15:57:25.658Z,103845.89
2019-01-02T15:59:52.955Z,103846.91
2019-01-02T16:02:20.193Z,103853.48
2019-01-02T16:04:47.432Z,103846.37
2019-01-02T16:07:14.719Z,103845.98
2019-01-02T16:09:41.963Z,103851.78
2019-01-02T16:12:09.317Z,103852.47
2019-01-02T16:14:36.552Z,103852.86
2019-01-02T16:17:03.942Z,103853.48
2019-01-02T16:19:31.196Z,103854.12
2019-01-02T16:21:58.421Z,103856.45
2019-01-02T16:24:25.670Z,103852.98
2019-01-02T16:26:52.941Z,103858.74
2019-01-02T16:29:20.161Z,103854.45
2019-01-02T16:31:47.376Z,103858.11
2019-01-02T16:34:14.786Z,103862.20
2019-01-02T16:36:42.024Z,103862.20
2019-01-02T16:39:09.291Z,103859.98
2019-01-02T16:41:36.560Z,103856.97
2019-01-02T16:44:03.789Z,103858.91
2019-01-02T16:46:31.092Z,103862.30
2019-01-02T16:48:58.413Z,103858.84
2019-01-02T16:51:25.723Z,103867.72
2019-01-02T16:53:53.007Z,103869.88
2019-01-02T16:56:20.251Z,103863.35
2019-01-02T16:58:47.467Z,103866.52
2019-01-02T17:01:14.752Z,103866.29
2019-01-02T17:03:42.019Z,103861.52
2019-01-02T17:06:09.267Z,103855.31
2019-01-02T17:08:36.552Z,103859.00
2019-01-02T17:11:03.781Z,103854.63
2019-01-02T17:13:31.052Z,103862.58
2019-01-02T17:15:58.399Z,103858.33
2019-01-02T17:18:25.612Z,103858.66
2019-01-02T17:20:52.950Z,103861.14
2019-01-02T17:23:20.732Z,103864.20
2019-01-02T17:25:47.951Z,103866.53
2019-01-02T17:28:15.180Z,103875.75
2019-01-02T17:30:42.446Z,103879.23
2019-01-02T17:33:09.813Z,103879.53
2019-01-02T17:35:37.218Z,103878.15
2019-01-02T17:38:04.797Z,103885.08
2019-01-02T17:40:32.102Z,103880.78
2019-01-02T17:43:00.668Z,103871.47
2019-01-02T17:45:28.087Z,103865.87
2019-01-02T17:47:55.607Z,103870.02
2019-01-02T17:50:22.863Z,103867.44
2019-01-02T17:52:50.222Z,103866.36
2019-01-02T17:55:17.460Z,103867.28
2019-01-02T17:57:44.737Z,103864.99
2019-01-02T18:00:12.529Z,103871.89
2019-01-02T18:02:39.779Z,103862.90
2019-01-02T18:05:07.029Z,103875.36
2019-01-02T18:07:34.506Z,103868.59
2019-01-02T18:10:01.734Z,103873.13
2019-01-02T18:12:30.740Z,103883.06
2019-01-02T18:14:58.007Z,103879.05
2019-01-02T18:17:25.371Z,103882.88
2019-01-02T18:19:52.643Z,103885.30
2019-01-02T18:22:19.856Z,103890.36
2019-01-02T18:24:47.120Z,103892.29
2019-01-02T18:27:14.379Z,103897.63
2019-01-02T18:29:41.617Z,103892.42
2019-01-02T18:32:08.860Z,103912.12
2019-01-02T18:34:36.073Z,103903.21
2019-01-02T18:37:03.316Z,103900.00
2019-01-02T18:39:30.554Z,103905.34
2019-01-02T18:41:57.783Z,103904.27
2019-01-02T18:44:24.998Z,103898.30
2019-01-02T18:46:52.248Z,103900.13
2019-01-02T18:49:19.541Z,103906.30
2019-01-02T18:51:46.796Z,103901.37
2019-01-02T18:54:15.001Z,103910.14
2019-01-02T18:56:42.248Z,103900.59
2019-01-02T18:59:09.506Z,103900.05
2019-01-02T19:01:36.744Z,103904.21
2019-01-02T19:04:03.980Z,103911.05
2019-01-02T19:06:31.235Z,103916.90
2019-01-02T19:08:58.505Z,103915.52
2019-01-02T19:11:25.751Z,103913.44
2019-01-02T19:13:53.240Z,103920.37
2019-01-02T19:16:21.635Z,103922.98
2019-01-02T19:18:48.980Z,103919.36
2019-01-02T19:21:16.237Z,103917.29
2019-01-02T19:23:43.444Z,103918.45
2019-01-02T19:26:10.684Z,103917.06
2019-01-02T19:28:37.915Z,103919.05
2019-01-02T19:31:07.337Z,103922.05
2019-01-02T19:33:34.586Z,103922.81
2019-01-02T19:36:01.830Z,103918.80
2019-01-02T19:38:29.030Z,103920.97
2019-01-02T19:40:56.269Z,103926.22
2019-01-02T19:43:23.534Z,103930.83
2019-01-02T19:45:50.760Z,103932.27
2019-01-02T19:48:18.007Z,103937.89
2019-01-02T19:50:45.272Z,103944.89
2019-01-02T19:53:12.512Z,103927.59
2019-01-02T19:55:39.732Z,103927.59
2019-01-02T19:58:07.038Z,103928.05
2019-01-02T20:00:34.268Z,103928.05
2019-01-02T20:03:01.503Z,103926.53
2019-01-02T20:05:28.798Z,103916.77
2019-01-02T20:07:56.005Z,103920.91
2019-01-02T20:10:23.235Z,103918.82
2019-01-02T20:12:50.478Z,103922.52
2019-01-02T20:15:17.717Z,103917.89
2019-01-02T20:17:45.423Z,103913.74
2019-01-02T20:20:13.268Z,103904.52
2019-01-02T20:22:41.044Z,103915.15
2019-01-02T20:25:08.346Z,103918.00
2019-01-02T20:27:35.894Z,103910.93
2019-01-02T20:30:04.327Z,103910.93
2019-01-02T20:32:31.942Z,103916.88
2019-01-02T20:34:59.221Z,103918.09
2019-01-02T20:37:26.452Z,103919.17
2019-01-02T20:39:54.036Z,103920.84
2019-01-02T20:42:21.309Z,103928.23
2019-01-02T20:44:48.535Z,103927.06
2019-01-02T20:47:15.881Z,103920.58
2019-01-02T20:49:43.185Z,103914.58
2019-01-02T20:52:10.477Z,103910.52
2019-01-02T20:54:37.665Z,103914.77
2019-01-02T20:57:04.980Z,103907.20
2019-01-02T20:59:32.198Z,103909.12
2019-01-02T21:01:59.433Z,103910.91
2019-01-02T21:04:26.691Z,103903.91
2019-01-02T21:06:53.917Z,103907.43
2019-01-02T21:09:21.169Z,103906.14
2019-01-02T21:11:48.452Z,103901.28
2019-01-02T21:14:15.646Z,103904.73
2019-01-02T21:16:42.880Z,103901.14
2019-01-02T21:19:12.736Z,103901.98
2019-01-02T21:21:39.922Z,103901.07
2019-01-02T21:24:07.202Z,103908.05
2019-01-02T21:26:34.397Z,103900.52
2019-01-02T21:29:01.635Z,103908.05
2019-01-02T21:31:28.923Z,103910.99
2019-01-02T21:33:56.173Z,103908.05
2019-01-02T21:36:23.395Z,103906.45
2019-01-02T21:38:50.645Z,103906.12
2019-01-02T21:41:17.904Z,103905.38
2019-01-02T21:43:45.117Z,103894.67
2019-01-02T21:46:12.409Z,103906.66
2019-01-02T21:48:41.367Z,103906.77
2019-01-02T21:51:08.755Z,103901.98
2019-01-02T21:53:36.089Z,103899.28
2019-01-02T21:56:03.320Z,103898.89
2019-01-02T21:58:30.560Z,103892.14
2019-01-02T22:00:57.861Z,103888.16
2019-01-02T22:03:25.078Z,103881.38
2019-01-02T22:05:53.217Z,103882.38
2019-01-02T22:08:20.447Z,103879.85
2019-01-02T22:10:47.660Z,103877.91
2019-01-02T22:13:14.950Z,103870.61
2019-01-02T22:15:42.161Z,103870.22
2019-01-02T22:18:09.415Z,103872.97
2019-01-02T22:20:36.687Z,103871.83
2019-01-02T22:23:03.915Z,103871.89
2019-01-02T22:25:31.155Z,103876.37
2019-01-02T22:27:58.356Z,103877.74
2019-01-02T22:30:25.561Z,103874.30
2019-01-02T22:32:52.873Z,103875.61
2019-01-02T22:35:20.114Z,103864.11
2019-01-02T22:37:47.338Z,103864.11
2019-01-02T22:40:14.604Z,103877.39
2019-01-02T22:42:41.845Z,103882.39
2019-01-02T22:45:09.095Z,103891.69
2019-01-02T22:47:36.384Z,103880.64
2019-01-02T22:50:05.519Z,103879.11
2019-01-02T22:52:32.760Z,103878.73
2019-01-02T22:55:00.162Z,103879.50
2019-01-02T22:57:27.366Z,103881.42
2019-01-02T22:59:54.625Z,103882.45
2019-01-02T23:02:44.886Z,103873.08
2019-01-02T23:05:26.236Z,103875.70
2019-01-02T23:08:23.262Z,103873.38
2019-01-02T23:11:12.689Z,103873.84
2019-01-02T23:13:58.320Z,103873.98
2019-01-02T23:16:46.195Z,103877.75
2019-01-02T23:19:31.371Z,103889.05
2019-01-02T23:22:17.086Z,103885.83
2019-01-02T23:25:06.685Z,103873.70
2019-01-02T23:27:51.008Z,103864.47
2019-01-02T23:30:56.176Z,103867.30
2019-01-02T23:33:41.815Z,103876.25
2019-01-02T23:36:24.812Z,103878.15
2019-01-02T23:39:11.634Z,103873.38
2019-01-02T23:41:59.977Z,103870.70
2019-01-02T23:44:58.920Z,103876.30
2019-01-02T23:47:54.855Z,103876.82
2019-01-02T23:50:53.720Z,103870.77
2019-01-02T23:53:33.057Z,103871.85
2019-01-02T23:56:18.447Z,103869.39
2019-01-02T23:59:03.874Z,103873.52
